Time;durP1;ratioP1;P1;durP2;ratioP2;P2;SDS_P1;SDS_P2;PMS_P1;PMS_P2;Temp;Humidity;BMP_temperature;BMP_pressure;BME280_temperature;BME280_humidity;BME280_pressure;Samples;Min_cycle;Max_cycle;Signal;HPM_P1;HPM_P2
2021/04/14 00:01:56;;;;;;;12.40;6.45;;;;;;;4.90;67.05;101413.88;5057271;28;20071;-63
2021/04/14 00:04:26;;;;;;;10.73;6.53;;;;;;;4.90;67.34;101416.47;5073923;28;20039;-63
2021/04/14 00:06:59;;;;;;;8.93;5.65;;;;;;;4.88;67.63;101413.78;5057354;28;20044;-63
2021/04/14 00:09:29;;;;;;;8.48;6.68;;;;;;;4.88;67.24;101411.19;5057827;28;20047;-62
2021/04/14 00:11:59;;;;;;;8.82;6.60;;;;;;;4.86;67.60;101411.13;5057278;28;20041;-62
2021/04/14 00:14:26;;;;;;;10.43;7.18;;;;;;;4.86;67.20;101416.25;5057204;28;20090;-62
2021/04/14 00:16:55;;;;;;;9.73;7.00;;;;;;;4.84;66.96;101411.81;5057283;28;20089;-63
2021/04/14 00:19:24;;;;;;;7.63;6.07;;;;;;;4.84;67.02;101409.22;5057313;28;20045;-63
2021/04/14 00:21:50;;;;;;;9.98;7.18;;;;;;;4.83;67.01;101410.94;5075673;28;20040;-63
2021/04/14 00:24:19;;;;;;;10.30;7.10;;;;;;;4.81;66.91;101414.22;5057226;28;20071;-63
2021/04/14 00:26:48;;;;;;;8.82;6.90;;;;;;;4.80;67.30;101403.03;5057204;28;20097;-63
2021/04/14 00:29:13;;;;;;;10.35;6.22;;;;;;;4.79;67.19;101405.53;5056634;28;20032;-63
2021/04/14 00:31:39;;;;;;;12.70;7.25;;;;;;;4.77;66.87;101402.84;5074643;28;20035;-63
2021/04/14 00:34:15;;;;;;;8.85;6.80;;;;;;;4.74;67.30;101402.69;5074830;28;20135;-63
2021/04/14 00:36:42;;;;;;;9.13;6.10;;;;;;;4.73;67.27;101403.47;5074047;28;20048;-62
2021/04/14 00:39:21;;;;;;;11.68;6.75;;;;;;;4.71;67.14;101399.91;5056966;28;20040;-63
2021/04/14 00:41:48;;;;;;;8.20;5.32;;;;;;;4.71;67.05;101410.19;5073694;28;20044;-63
2021/04/14 00:44:17;;;;;;;11.90;6.50;;;;;;;4.68;66.68;101400.59;5073321;28;20105;-63
2021/04/14 00:46:45;;;;;;;9.88;6.45;;;;;;;4.68;66.89;101400.59;5074669;28;20561;-63
2021/04/14 00:49:13;;;;;;;11.77;7.18;;;;;;;4.67;67.05;101391.09;5073670;28;20043;-63
2021/04/14 00:51:42;;;;;;;8.45;5.47;;;;;;;4.66;66.79;101397.06;5074520;28;20120;-62
2021/04/14 00:54:12;;;;;;;10.32;6.07;;;;;;;4.66;67.36;101398.72;5056799;28;20066;-63
2021/04/14 00:56:37;;;;;;;13.75;6.22;;;;;;;4.63;67.47;101391.72;5073318;28;20365;-62
2021/04/14 00:59:03;;;;;;;10.85;6.50;;;;;;;4.62;67.00;101394.19;5074369;28;20036;-63
2021/04/14 01:01:28;;;;;;;14.52;5.85;;;;;;;4.62;67.16;101394.19;5073952;28;20061;-63
2021/04/14 01:03:55;;;;;;;12.43;5.88;;;;;;;4.60;67.25;101390.63;5073170;28;20419;-63
2021/04/14 01:06:28;;;;;;;8.80;5.70;;;;;;;4.59;66.92;101388.88;5073359;28;20036;-63
2021/04/14 01:08:59;;;;;;;10.75;6.50;;;;;;;4.56;67.47;101387.91;5056202;28;20036;-63
2021/04/14 01:11:30;;;;;;;7.93;6.00;;;;;;;4.60;67.55;101399.25;5056554;28;20044;-62
2021/04/14 01:13:56;;;;;;;10.18;6.57;;;;;;;4.59;66.79;101394.91;5073852;28;20032;-63
2021/04/14 01:16:27;;;;;;;7.95;6.35;;;;;;;4.59;66.84;101391.47;5056650;28;20047;-63
2021/04/14 01:18:52;;;;;;;9.23;6.10;;;;;;;4.60;67.22;101395.78;5074170;28;20127;-62
2021/04/14 01:21:23;;;;;;;9.93;5.93;;;;;;;4.60;66.91;101390.63;5073719;28;20526;-63
2021/04/14 01:23:51;;;;;;;9.80;6.65;;;;;;;4.60;67.13;101391.53;5055833;28;20033;-62
2021/04/14 01:26:17;;;;;;;10.38;7.03;;;;;;;4.60;66.74;101396.69;5072231;28;20443;-62
2021/04/14 01:28:49;;;;;;;7.57;5.82;;;;;;;4.60;67.10;101391.53;5073619;28;20032;-63
2021/04/14 01:31:19;;;;;;;13.90;7.20;;;;;;;4.60;67.18;101386.41;5074074;28;20484;-63
2021/04/14 01:33:45;;;;;;;11.18;6.70;;;;;;;4.62;66.88;101378.78;5073741;28;20626;-63
2021/04/14 01:36:11;;;;;;;12.20;7.15;;;;;;;4.61;67.25;101383.03;5073381;28;20116;-62
2021/04/14 01:38:38;;;;;;;10.00;7.00;;;;;;;4.61;66.81;101379.56;5055706;28;20036;-63
2021/04/14 01:41:06;;;;;;;15.57;6.75;;;;;;;4.61;66.56;101375.34;5072533;28;20040;-63
2021/04/14 01:43:34;;;;;;;11.38;6.43;;;;;;;4.59;67.26;101373.47;5056377;28;20067;-63
2021/04/14 01:46:02;;;;;;;9.38;7.00;;;;;;;4.57;67.49;101374.28;5073707;28;20415;-63
2021/04/14 01:48:30;;;;;;;14.63;6.47;;;;;;;4.59;67.15;101379.50;5072563;28;20049;-63
2021/04/14 01:50:59;;;;;;;11.10;6.75;;;;;;;4.59;67.19;101371.78;5072479;28;20128;-63
2021/04/14 01:53:27;;;;;;;8.63;6.15;;;;;;;4.60;66.56;101377.78;5055012;28;20040;-62
2021/04/14 01:55:56;;;;;;;11.80;7.05;;;;;;;4.59;67.14;101378.63;5072172;28;20039;-63
2021/04/14 01:58:28;;;;;;;11.25;6.82;;;;;;;4.61;67.10;101379.56;5072002;28;20458;-63
2021/04/14 02:00:59;;;;;;;11.93;7.38;;;;;;;4.59;67.13;101373.47;5072134;28;20033;-63
2021/04/14 02:03:29;;;;;;;15.13;7.45;;;;;;;4.57;66.97;101371.69;5073756;28;20086;-63
2021/04/14 02:05:57;;;;;;;9.75;6.75;;;;;;;4.57;67.20;101373.38;5073000;28;20064;-63
2021/04/14 02:08:26;;;;;;;9.32;7.00;;;;;;;4.55;67.02;101377.50;5055408;28;20040;-62
2021/04/14 02:10:52;;;;;;;12.32;8.00;;;;;;;4.56;67.14;101379.28;5072212;28;20499;-63
2021/04/14 02:13:29;;;;;;;10.63;7.35;;;;;;;4.53;67.03;101377.44;5055248;28;20522;-63
2021/04/14 02:15:55;;;;;;;10.93;7.03;;;;;;;4.55;67.19;101382.66;5073636;28;20056;-63
2021/04/14 02:18:22;;;;;;;12.80;7.05;;;;;;;4.54;67.24;101380.88;5072529;28;20082;-63
2021/04/14 02:20:48;;;;;;;10.98;6.18;;;;;;;4.52;66.62;101373.09;5072095;28;20029;-63
2021/04/14 02:23:27;;;;;;;8.77;6.00;;;;;;;4.52;67.26;101375.66;5055318;28;20090;-63
2021/04/14 02:25:56;;;;;;;11.88;7.07;;;;;;;4.53;67.11;101374.88;5055025;28;20043;-62
2021/04/14 02:28:22;;;;;;;10.25;7.43;;;;;;;4.52;67.47;101367.94;5073630;28;20064;-63
2021/04/14 02:30:51;;;;;;;10.43;7.32;;;;;;;4.52;66.91;101365.38;5073381;28;20071;-63
2021/04/14 02:33:20;;;;;;;10.52;7.50;;;;;;;4.52;67.22;101362.81;5071675;28;20037;-63
2021/04/14 02:35:51;;;;;;;8.88;7.57;;;;;;;4.52;67.18;101367.06;5077293;28;20037;-63
2021/04/14 02:38:18;;;;;;;12.70;7.97;;;;;;;4.53;67.11;101367.16;5077092;28;20033;-63
2021/04/14 02:40:50;;;;;;;13.40;6.82;;;;;;;4.52;66.94;101362.81;5059069;28;20089;-62
2021/04/14 02:43:15;;;;;;;10.50;6.80;;;;;;;4.52;67.29;101375.66;5058975;28;20033;-63
2021/04/14 02:45:43;;;;;;;8.55;6.50;;;;;;;4.53;66.64;101371.41;5077042;28;20035;-63
2021/04/14 02:48:13;;;;;;;10.85;7.85;;;;;;;4.51;67.20;101363.63;5059290;28;20123;-62
2021/04/14 02:50:39;;;;;;;11.98;7.85;;;;;;;4.49;66.91;101369.44;5058878;28;20487;-63
2021/04/14 02:53:06;;;;;;;12.95;7.70;;;;;;;4.46;67.02;101361.56;5075717;28;20033;-63
2021/04/14 02:55:33;;;;;;;11.80;7.85;;;;;;;4.42;66.52;101358.78;5076678;28;20098;-63
2021/04/14 02:58:02;;;;;;;10.27;6.88;;;;;;;4.40;67.44;101356.94;5076337;28;20040;-63
2021/04/14 03:00:34;;;;;;;9.35;6.88;;;;;;;4.38;66.59;101353.38;5075537;28;20109;-63
2021/04/14 03:03:00;;;;;;;8.30;6.38;;;;;;;4.38;67.42;101363.66;5058473;28;20549;-63
2021/04/14 03:05:31;;;;;;;8.73;6.68;;;;;;;4.36;66.34;101360.97;5076648;28;20047;-62
2021/04/14 03:07:57;;;;;;;12.85;7.75;;;;;;;4.36;66.95;101365.22;5076431;28;20064;-63
2021/04/14 03:10:28;;;;;;;13.82;9.20;;;;;;;4.34;66.63;101351.41;5076494;28;20068;-62
2021/04/14 03:12:54;;;;;;;16.95;10.52;;;;;;;4.32;66.98;101360.69;5058303;28;20078;-63
2021/04/14 03:15:24;;;;;;;19.35;11.80;;;;;;;4.32;66.76;101355.56;5075543;28;20036;-63
2021/04/14 03:17:55;;;;;;;36.60;18.60;;;;;;;4.30;66.77;101350.34;5058369;28;20067;-63
2021/04/14 03:20:24;;;;;;;55.45;28.65;;;;;;;4.26;67.06;101344.13;5058396;28;20087;-63
2021/04/14 03:22:51;;;;;;;70.90;32.67;;;;;;;4.25;66.96;101346.59;5074923;28;20119;-63
2021/04/14 03:25:21;;;;;;;62.17;30.42;;;;;;;4.23;67.35;101346.50;5074785;28;20033;-64
2021/04/14 03:27:50;;;;;;;64.50;29.10;;;;;;;4.23;67.27;101349.06;5076565;28;20091;-63
2021/04/14 03:30:19;;;;;;;57.13;28.50;;;;;;;4.22;67.49;101349.84;5076513;28;20475;-63
2021/04/14 03:32:47;;;;;;;54.10;25.60;;;;;;;4.21;66.83;101348.06;5075100;28;20086;-63
2021/04/14 03:35:14;;;;;;;48.78;25.23;;;;;;;4.19;66.96;101341.97;5076058;28;20040;-63
2021/04/14 03:37:40;;;;;;;40.20;21.35;;;;;;;4.18;66.58;101339.31;5057937;28;20064;-62
2021/04/14 03:40:07;;;;;;;36.25;18.15;;;;;;;4.17;67.28;101340.97;5075910;28;20052;-63
2021/04/14 03:42:35;;;;;;;29.80;16.70;;;;;;;4.16;66.84;101340.88;5058746;28;20039;-63
2021/04/14 03:45:10;;;;;;;23.27;13.70;;;;;;;4.13;67.46;101331.28;5074269;28;20032;-62
2021/04/14 03:47:39;;;;;;;22.40;13.25;;;;;;;4.12;66.48;101334.69;5074968;28;20032;-62
2021/04/14 03:50:06;;;;;;;22.33;11.77;;;;;;;4.13;66.91;101338.13;5075682;28;20025;-62
2021/04/14 03:52:38;;;;;;;15.75;9.93;;;;;;;4.12;67.02;101329.56;5074442;28;20068;-62
2021/04/14 03:55:10;;;;;;;16.17;10.40;;;;;;;4.10;66.85;101333.69;5074620;28;20028;-63
2021/04/14 03:57:38;;;;;;;14.48;8.07;;;;;;;4.10;67.30;101334.56;5074731;28;20127;-63
2021/04/14 04:00:09;;;;;;;14.02;8.68;;;;;;;4.08;67.20;101328.44;5075704;28;20116;-63
2021/04/14 04:02:35;;;;;;;14.50;8.95;;;;;;;4.09;67.17;101337.06;5076020;28;20048;-63
2021/04/14 04:05:03;;;;;;;11.52;7.45;;;;;;;4.07;66.62;101331.81;5074359;28;20093;-63
2021/04/14 04:07:32;;;;;;;12.50;8.40;;;;;;;4.08;66.94;101337.84;5074066;28;20032;-62
2021/04/14 04:10:02;;;;;;;15.00;7.78;;;;;;;4.07;66.78;101334.38;5074427;28;20498;-63
2021/04/14 04:12:30;;;;;;;9.95;6.90;;;;;;;4.06;67.08;101336.84;5074994;28;20028;-63
2021/04/14 04:15:03;;;;;;;9.15;6.70;;;;;;;4.06;66.70;101331.72;5074949;28;20068;-62
2021/04/14 04:17:33;;;;;;;8.93;6.80;;;;;;;4.05;67.27;101332.50;5057451;28;20044;-63
2021/04/14 04:20:01;;;;;;;13.38;7.72;;;;;;;4.06;66.87;101331.72;5057363;28;20043;-62
2021/04/14 04:22:32;;;;;;;9.88;6.65;;;;;;;4.06;66.91;101331.72;5074828;28;20032;-63
2021/04/14 04:24:59;;;;;;;15.75;6.70;;;;;;;4.07;66.99;101330.94;5057641;28;20036;-62
2021/04/14 04:27:25;;;;;;;11.20;6.70;;;;;;;4.07;67.13;101336.06;5075376;28;20071;-62
2021/04/14 04:29:56;;;;;;;11.43;7.18;;;;;;;4.06;66.91;101334.28;5073532;28;20043;-63
2021/04/14 04:32:24;;;;;;;16.45;7.25;;;;;;;4.07;66.77;101325.81;5073496;28;20041;-62
2021/04/14 04:34:55;;;;;;;11.82;7.05;;;;;;;4.06;66.81;101335.16;5075018;28;20025;-63
2021/04/14 04:37:23;;;;;;;14.35;6.82;;;;;;;4.06;66.82;101330.03;5057166;28;20381;-63
2021/04/14 04:39:52;;;;;;;10.10;7.63;;;;;;;4.06;67.19;101330.03;5074769;28;20048;-63
2021/04/14 04:42:20;;;;;;;9.20;6.35;;;;;;;4.05;67.02;101332.50;5056781;28;20037;-63
2021/04/14 04:44:45;;;;;;;9.90;6.90;;;;;;;4.06;66.88;101331.72;5056921;28;20032;-62
2021/04/14 04:47:13;;;;;;;11.68;6.40;;;;;;;4.04;67.26;101335.88;5074650;28;20553;-63
2021/04/14 04:49:44;;;;;;;9.02;7.35;;;;;;;4.04;67.07;101330.72;5074703;28;20036;-63
2021/04/14 04:52:15;;;;;;;10.35;6.35;;;;;;;4.04;66.75;101336.78;5073369;28;20041;-62
2021/04/14 04:54:40;;;;;;;17.33;7.45;;;;;;;4.04;66.41;101335.88;5073260;28;20032;-63
2021/04/14 04:57:06;;;;;;;10.52;6.63;;;;;;;4.04;66.73;101341.00;5073873;28;20116;-62
2021/04/14 04:59:31;;;;;;;13.60;7.95;;;;;;;4.02;67.35;101335.78;5073063;28;20124;-63
2021/04/14 05:02:03;;;;;;;11.98;7.32;;;;;;;4.02;67.03;101337.44;5074577;28;20036;-63
2021/04/14 05:04:31;;;;;;;11.25;7.57;;;;;;;4.01;66.86;101348.50;5074230;28;20388;-63
2021/04/14 05:06:59;;;;;;;16.45;8.02;;;;;;;4.01;66.96;101343.38;5073375;28;20063;-63
2021/04/14 05:09:28;;;;;;;13.32;7.75;;;;;;;4.01;66.66;101341.69;5073041;28;20051;-63
2021/04/14 05:11:56;;;;;;;10.90;7.60;;;;;;;4.00;66.96;101341.59;5056116;28;20097;-63
2021/04/14 05:14:27;;;;;;;12.52;7.30;;;;;;;4.01;66.70;101345.94;5055993;28;20036;-63
2021/04/14 05:16:53;;;;;;;14.02;6.70;;;;;;;4.02;66.80;101347.69;5072996;28;20182;-63
2021/04/14 05:19:18;;;;;;;14.80;7.68;;;;;;;4.00;66.53;101350.19;5074136;28;20555;-63
2021/04/14 05:21:50;;;;;;;13.77;7.07;;;;;;;3.99;66.99;101352.63;5074102;28;20039;-63
2021/04/14 05:24:16;;;;;;;12.70;6.63;;;;;;;3.99;66.44;101350.97;5072881;28;20036;-62
2021/04/14 05:26:44;;;;;;;12.57;7.65;;;;;;;3.99;66.33;101358.66;5073728;28;20041;-63
2021/04/14 05:29:12;;;;;;;10.98;6.60;;;;;;;3.99;66.87;101360.34;5072924;28;20123;-63
2021/04/14 05:31:41;;;;;;;7.68;6.47;;;;;;;3.99;66.63;101356.09;5073371;28;20040;-62
2021/04/14 05:34:10;;;;;;;9.80;6.82;;;;;;;3.99;66.54;101355.19;5072484;28;20039;-63
2021/04/14 05:36:41;;;;;;;12.02;6.78;;;;;;;4.00;66.87;101354.41;5056173;28;20471;-62
2021/04/14 05:39:07;;;;;;;10.18;6.00;;;;;;;4.00;66.99;101356.97;5055748;28;20059;-63
2021/04/14 05:41:32;;;;;;;9.75;5.60;;;;;;;4.00;66.60;101362.09;5072475;28;20471;-63
2021/04/14 05:44:02;;;;;;;11.75;5.85;;;;;;;3.99;67.06;101356.09;5073666;28;20039;-63
2021/04/14 05:46:28;;;;;;;9.93;6.03;;;;;;;4.02;66.46;101366.56;5072435;28;20036;-63
2021/04/14 05:48:55;;;;;;;10.57;5.43;;;;;;;4.02;66.32;101366.56;5072279;28;20036;-63
2021/04/14 05:51:27;;;;;;;14.10;6.75;;;;;;;4.03;66.81;101368.34;5072543;28;20102;-62
2021/04/14 05:53:56;;;;;;;10.13;6.10;;;;;;;4.03;66.75;101376.03;5073510;28;20025;-63
2021/04/14 05:56:23;;;;;;;8.50;6.00;;;;;;;4.03;66.75;101367.44;5055606;28;20130;-62
2021/04/14 05:58:49;;;;;;;10.30;5.97;;;;;;;4.01;66.68;101371.59;5072327;28;20032;-62
2021/04/14 06:01:18;;;;;;;11.75;6.43;;;;;;;3.99;66.29;101368.94;5072256;28;20071;-62
2021/04/14 06:03:52;;;;;;;12.85;6.95;;;;;;;3.97;67.13;101376.50;5055930;28;20031;-63
2021/04/14 06:06:19;;;;;;;9.80;6.72;;;;;;;3.98;66.89;101377.41;5073648;28;20082;-63
2021/04/14 06:08:44;;;;;;;9.82;7.30;;;;;;;3.98;66.60;101382.53;5072979;28;20059;-63
2021/04/14 06:11:10;;;;;;;10.88;6.78;;;;;;;3.98;66.97;101377.41;5073114;28;20445;-63
2021/04/14 06:13:36;;;;;;;11.70;6.57;;;;;;;3.98;66.10;101379.97;5071990;28;20095;-63
2021/04/14 06:16:04;;;;;;;13.02;7.65;;;;;;;3.97;66.14;101385.91;5073576;28;20124;-63
2021/04/14 06:18:35;;;;;;;9.38;5.78;;;;;;;3.97;66.56;101379.06;5073179;28;20038;-63
2021/04/14 06:21:04;;;;;;;8.98;6.13;;;;;;;3.99;66.48;101383.41;5055464;28;20102;-63
2021/04/14 06:23:32;;;;;;;10.63;6.93;;;;;;;3.99;66.96;101383.41;5055035;28;20025;-63
2021/04/14 06:28:32;;;;;;;10.13;6.55;;;;;;;4.00;66.39;101386.09;5072240;28;20037;-63
2021/04/14 06:30:57;;;;;;;14.85;7.00;;;;;;;4.01;66.81;101392.09;5072276;28;20048;-62
2021/04/14 06:33:24;;;;;;;11.57;6.82;;;;;;;4.02;66.49;101389.66;5071985;28;20120;-63
2021/04/14 06:35:56;;;;;;;13.45;6.72;;;;;;;4.03;67.03;101391.44;5054980;28;20484;-63
2021/04/14 06:38:29;;;;;;;10.65;5.72;;;;;;;4.04;66.92;101385.53;5055033;28;20028;-63
2021/04/14 06:44:27;;;;;;;10.80;6.75;;;;;;;4.07;66.49;101393.38;5037907;28;20072;-62
2021/04/14 06:46:54;;;;;;;13.38;6.80;;;;;;;4.10;66.79;101387.59;5073154;28;20032;-63
2021/04/14 06:49:41;;;;;;;15.43;7.88;;;;;;;4.10;66.47;101383.31;5055127;28;20032;-63
2021/04/14 06:52:45;;;;;;;10.45;6.15;;;;;;;4.12;66.90;101386.00;5071961;28;20115;-63
2021/04/14 06:55:15;;;;;;;12.23;5.55;;;;;;;4.15;66.75;101390.44;5055036;28;20495;-62
2021/04/14 06:57:52;;;;;;;12.05;7.47;;;;;;;4.17;66.55;101384.59;5055381;28;20119;-63
2021/04/14 07:00:26;;;;;;;13.77;6.82;;;;;;;4.18;66.48;101393.19;5055153;28;20033;-63
2021/04/14 07:02:58;;;;;;;;;;;;;;;4.19;66.25;101390.72;5071804;28;20055;-63
2021/04/14 07:05:28;;;;;;;11.23;6.18;;;;;;;4.20;66.64;101394.19;5071947;28;19916;-63
2021/04/14 07:07:59;;;;;;;11.23;6.53;;;;;;;4.20;66.21;101389.94;5072104;28;20068;-63
2021/04/14 07:10:32;;;;;;;11.27;6.55;;;;;;;4.22;66.37;101385.78;5055209;28;20067;-63
2021/04/14 07:13:02;;;;;;;10.30;5.60;;;;;;;4.23;66.05;101387.56;5071703;28;20515;-63
2021/04/14 07:15:34;;;;;;;13.70;7.07;;;;;;;4.26;66.07;101385.19;5055051;28;20075;-63
2021/04/14 07:18:28;;;;;;;13.70;6.43;;;;;;;4.26;66.38;101385.19;5072158;28;20036;-63
2021/04/14 07:21:17;;;;;;;9.37;6.33;;;;;;;4.29;66.19;101393.84;5073907;28;20036;-63
2021/04/14 07:23:50;;;;;;;13.80;5.88;;;;;;;4.31;66.57;101392.28;5075200;28;20418;-63
2021/04/14 07:26:31;;;;;;;17.75;8.13;;;;;;;4.32;66.47;101394.06;5058356;28;20036;-63
2021/04/14 07:29:02;;;;;;;10.75;6.90;;;;;;;4.33;67.00;101398.41;5075484;28;20037;-62
2021/04/14 07:31:34;;;;;;;14.32;7.68;;;;;;;4.35;66.37;101392.59;5076203;28;20028;-63
2021/04/14 07:34:09;;;;;;;8.20;6.47;;;;;;;4.36;66.58;101390.91;5074793;28;20043;-63
2021/04/14 07:36:41;;;;;;;8.60;5.65;;;;;;;4.38;66.84;101397.03;5058104;28;20036;-63
2021/04/14 07:39:32;;;;;;;10.27;6.75;;;;;;;4.38;65.96;101391.88;5058048;28;20127;-63
2021/04/14 07:42:04;;;;;;;9.82;5.93;;;;;;;4.38;66.55;101392.75;5075894;28;20036;-63
2021/04/14 07:44:43;;;;;;;8.60;6.22;;;;;;;4.40;66.56;101390.31;5074661;28;20041;-63
2021/04/14 07:47:13;;;;;;;8.63;6.25;;;;;;;4.40;66.72;101383.47;5076245;28;20123;-63
2021/04/14 07:49:39;;;;;;;11.18;5.90;;;;;;;4.41;66.27;101387.81;5074821;28;20041;-63
2021/04/14 07:52:05;;;;;;;8.73;5.90;;;;;;;4.42;66.31;101392.16;5074777;28;20194;-63
2021/04/14 07:54:46;;;;;;;10.18;6.35;;;;;;;4.43;66.21;101390.50;5074553;28;20060;-63
2021/04/14 07:57:11;;;;;;;13.82;5.90;;;;;;;4.46;66.58;101390.66;5058140;28;20036;-63
2021/04/14 07:59:40;;;;;;;11.80;6.47;;;;;;;4.47;66.68;101392.44;5074908;28;20538;-63
2021/04/14 08:02:08;;;;;;;11.85;7.05;;;;;;;4.49;66.72;101390.00;5074201;28;20147;-63
2021/04/14 08:04:40;;;;;;;8.82;6.30;;;;;;;4.50;66.71;101387.50;5075530;28;20028;-62
2021/04/14 08:07:08;;;;;;;8.68;6.15;;;;;;;4.50;66.41;101389.19;5074829;28;20044;-63
2021/04/14 08:09:46;;;;;;;12.25;6.72;;;;;;;4.52;66.41;101388.50;5058013;28;20166;-63
2021/04/14 08:12:29;;;;;;;15.02;6.43;;;;;;;4.53;66.39;101384.22;5057327;28;20597;-63
2021/04/14 08:15:16;;;;;;;11.75;6.90;;;;;;;4.54;66.50;101389.47;5074471;28;20410;-63
2021/04/14 08:17:44;;;;;;;9.65;6.75;;;;;;;4.55;66.58;101385.22;5074091;28;20405;-63
2021/04/14 08:20:26;;;;;;;10.98;6.90;;;;;;;4.56;66.35;101380.19;5057238;28;20066;-63
2021/04/14 08:23:03;;;;;;;8.70;6.93;;;;;;;4.59;66.60;101378.63;5074852;28;20495;-63
2021/04/14 08:25:31;;;;;;;13.68;6.93;;;;;;;4.61;66.06;101382.13;5075429;28;20040;-63
2021/04/14 08:28:01;;;;;;;7.82;6.10;;;;;;;4.63;66.73;101381.47;5075201;28;20040;-63
2021/04/14 08:30:30;;;;;;;10.93;7.05;;;;;;;4.65;66.22;101384.13;5073881;28;20041;-63
2021/04/14 08:33:06;;;;;;;12.35;6.28;;;;;;;4.68;66.21;101381.75;5056989;28;20037;-63
2021/04/14 08:35:37;;;;;;;7.25;5.45;;;;;;;4.69;65.89;101380.94;5057094;28;20032;-63
2021/04/14 08:38:23;;;;;;;10.18;6.72;;;;;;;4.71;66.03;101381.94;5056899;28;20036;-63
2021/04/14 08:40:54;;;;;;;8.52;5.43;;;;;;;4.74;66.26;101379.56;5063905;28;20102;-63
2021/04/14 08:43:26;;;;;;;9.00;6.60;;;;;;;4.75;65.78;101380.44;5074617;28;20032;-63
2021/04/14 08:45:54;;;;;;;13.15;6.70;;;;;;;4.79;66.34;101375.56;5056893;28;20071;-63
2021/04/14 08:48:31;;;;;;;8.82;6.45;;;;;;;4.79;66.33;101378.13;5057285;28;20039;-63
2021/04/14 08:51:04;;;;;;;10.48;6.43;;;;;;;4.79;66.00;101362.72;5056795;28;20036;-63
2021/04/14 08:53:38;;;;;;;9.45;6.80;;;;;;;4.81;65.90;101366.28;5072888;28;20043;-63
2021/04/14 08:56:06;;;;;;;10.75;6.97;;;;;;;4.80;66.62;101367.06;5057203;28;20107;-63
2021/04/14 08:58:35;;;;;;;10.02;6.22;;;;;;;4.81;66.09;101370.53;5056643;28;20033;-64
2021/04/14 09:01:04;;;;;;;8.55;6.10;;;;;;;4.84;66.34;101371.59;5056622;28;20525;-63
2021/04/14 09:03:34;;;;;;;9.93;6.53;;;;;;;4.87;66.15;101368.31;5072849;28;20044;-63
2021/04/14 09:06:06;;;;;;;9.85;6.38;;;;;;;4.90;66.12;101368.50;5072842;28;20479;-63
2021/04/14 09:08:35;;;;;;;11.02;6.88;;;;;;;4.91;66.22;101369.38;5072955;28;20036;-63
2021/04/14 09:11:04;;;;;;;10.82;6.63;;;;;;;4.94;65.69;101367.00;5072991;28;20032;-63
2021/04/14 09:13:53;;;;;;;6.25;5.65;;;;;;;4.94;66.38;101364.44;5072806;28;20040;-63
2021/04/14 09:16:46;;;;;;;8.95;6.35;;;;;;;4.91;65.86;101370.28;5074182;28;20063;-63
2021/04/14 09:19:22;;;;;;;11.02;6.50;;;;;;;4.93;65.89;101360.09;5074633;28;20040;-63
2021/04/14 09:21:51;;;;;;;11.82;5.93;;;;;;;4.94;65.56;101357.63;5056389;28;20039;-63
2021/04/14 09:24:30;;;;;;;8.63;6.80;;;;;;;4.96;66.06;101357.72;5072960;28;20070;-63
2021/04/14 09:26:58;;;;;;;9.35;7.50;;;;;;;4.97;66.29;101359.50;5056281;28;20381;-63
2021/04/14 09:29:30;;;;;;;9.30;6.22;;;;;;;4.98;66.50;101357.00;5056235;28;20060;-63
2021/04/14 09:32:06;;;;;;;13.10;6.05;;;;;;;5.00;65.94;101355.41;5056043;28;20043;-63
2021/04/14 09:34:34;;;;;;;8.57;6.10;;;;;;;5.03;65.89;101350.47;5073531;28;20025;-63
2021/04/14 09:37:11;;;;;;;10.77;7.22;;;;;;;5.08;65.68;101355.88;5073419;28;20496;-63
2021/04/14 09:39:45;;;;;;;8.02;6.47;;;;;;;5.10;66.42;101351.72;5072117;28;20549;-63
2021/04/14 09:42:34;;;;;;;9.77;5.93;;;;;;;5.13;65.89;101354.47;5056376;28;20492;-63
2021/04/14 09:45:25;;;;;;;8.65;6.65;;;;;;;5.16;65.33;101354.66;5056253;28;20391;-63
2021/04/14 09:47:51;;;;;;;8.55;6.70;;;;;;;5.20;65.24;101352.28;5073315;28;20488;-63
2021/04/14 09:50:37;;;;;;;8.82;6.80;;;;;;;5.20;66.03;101349.69;5055458;28;20029;-63
2021/04/14 09:53:15;;;;;;;8.63;7.07;;;;;;;5.21;65.38;101349.78;5073947;28;20544;-63
2021/04/14 09:55:52;;;;;;;9.93;7.55;;;;;;;5.24;65.58;101349.06;5073614;28;20039;-63
2021/04/14 09:58:32;;;;;;;9.90;6.95;;;;;;;5.25;65.45;101343.13;5073495;28;20121;-63
2021/04/14 10:01:15;;;;;;;10.63;7.90;;;;;;;5.27;65.12;101344.09;5056363;28;20029;-63
2021/04/14 10:03:45;;;;;;;9.50;6.85;;;;;;;5.30;64.86;101339.16;5073931;28;20041;-63
2021/04/14 10:06:14;;;;;;;9.60;7.28;;;;;;;5.30;64.94;101340.03;5073424;28;20024;-63
2021/04/14 10:08:43;;;;;;;9.70;7.32;;;;;;;5.31;64.81;101333.22;5055420;28;20063;-63
2021/04/14 10:11:09;;;;;;;12.00;7.43;;;;;;;5.31;65.43;101335.78;5073196;28;20032;-63
2021/04/14 10:13:35;;;;;;;10.25;7.78;;;;;;;5.32;64.92;101329.84;5055881;28;20029;-63
2021/04/14 10:16:02;;;;;;;10.48;7.63;;;;;;;5.33;65.15;101331.63;5072078;28;20036;-63
2021/04/14 10:18:33;;;;;;;9.10;6.97;;;;;;;5.33;64.96;101329.91;5073781;28;20044;-63
2021/04/14 10:21:14;;;;;;;11.13;7.18;;;;;;;5.33;65.18;101334.19;5055578;28;20063;-63
2021/04/14 10:23:43;;;;;;;9.15;7.15;;;;;;;5.32;65.14;101329.84;5055107;28;20033;-63
2021/04/14 10:26:11;;;;;;;10.63;7.65;;;;;;;5.29;65.45;101327.09;5055293;28;20037;-63
2021/04/14 10:28:42;;;;;;;10.98;6.28;;;;;;;5.29;64.81;101333.13;5055246;28;20048;-63
2021/04/14 10:31:14;;;;;;;9.65;6.80;;;;;;;5.28;65.51;101333.03;5055490;28;20029;-63
2021/04/14 10:33:42;;;;;;;10.50;6.97;;;;;;;5.26;65.31;101325.25;5055163;28;20040;-63
2021/04/14 10:36:28;;;;;;;10.68;7.65;;;;;;;5.23;65.43;101335.34;5055019;28;20024;-63
2021/04/14 10:38:54;;;;;;;10.88;7.35;;;;;;;5.23;65.59;101330.19;5055837;28;20037;-63
2021/04/14 10:41:32;;;;;;;11.60;7.15;;;;;;;5.23;65.64;101329.28;5073041;28;20116;-63
2021/04/14 10:43:58;;;;;;;10.40;7.75;;;;;;;5.22;64.95;101332.66;5072860;28;20040;-63
2021/04/14 10:46:32;;;;;;;12.05;7.32;;;;;;;5.22;65.42;101330.09;5055072;28;20028;-63
2021/04/14 10:49:24;;;;;;;10.05;7.07;;;;;;;5.20;65.58;101324.88;5072164;28;20048;-63
2021/04/14 10:51:56;;;;;;;9.60;7.43;;;;;;;5.18;65.23;101322.22;5055249;28;20503;-63
2021/04/14 10:54:27;;;;;;;9.77;6.10;;;;;;;5.18;64.80;101322.22;5054957;28;20032;-63
2021/04/14 10:57:04;;;;;;;10.68;7.78;;;;;;;5.17;65.42;101317.88;5059075;28;20098;-63
2021/04/14 10:59:33;;;;;;;13.35;7.78;;;;;;;5.18;65.72;101329.94;5076153;28;20039;-63
2021/04/14 11:01:59;;;;;;;11.65;7.38;;;;;;;5.19;65.49;101317.94;5058521;28;20052;-63
2021/04/14 11:04:40;;;;;;;10.52;7.93;;;;;;;5.18;65.11;101317.09;5077046;28;20479;-63
2021/04/14 11:07:09;;;;;;;12.55;8.15;;;;;;;5.19;64.89;101312.81;5058823;28;20036;-63
2021/04/14 11:09:38;;;;;;;13.98;8.85;;;;;;;5.18;64.91;101306.81;5058736;28;20119;-63
2021/04/14 11:12:14;;;;;;;12.02;8.05;;;;;;;5.18;65.05;101301.66;5075453;28;20028;-63
2021/04/14 11:14:46;;;;;;;13.18;8.95;;;;;;;5.20;64.54;101303.44;5075193;28;20119;-63
2021/04/14 11:17:19;;;;;;;9.43;7.50;;;;;;;5.21;64.84;101297.50;5076535;28;20036;-63
2021/04/14 11:19:57;;;;;;;11.48;7.95;;;;;;;5.21;64.43;101300.94;5076037;28;20556;-63
2021/04/14 11:22:39;;;;;;;10.23;7.93;;;;;;;5.23;64.72;101299.34;5057952;28;20517;-63
2021/04/14 11:25:05;;;;;;;11.63;7.65;;;;;;;5.27;64.52;101295.25;5076449;28;20032;-63
2021/04/14 11:27:33;;;;;;;10.93;8.25;;;;;;;5.27;64.96;101293.59;5075024;28;20032;-63
2021/04/14 11:30:16;;;;;;;12.23;8.93;;;;;;;5.29;65.24;101289.44;5076258;28;20035;-63
2021/04/14 11:33:02;;;;;;;11.90;8.00;;;;;;;5.32;64.83;101287.00;5058199;28;20040;-63
2021/04/14 11:35:57;;;;;;;14.05;8.32;;;;;;;5.34;64.75;101285.41;5074416;28;20576;-63
2021/04/14 11:38:33;;;;;;;19.10;8.75;;;;;;;5.37;64.14;101288.97;5074134;28;20048;-63
2021/04/14 11:40:59;;;;;;;9.75;6.72;;;;;;;5.37;64.39;101282.16;5058311;28;20123;-63
2021/04/14 11:43:35;;;;;;;9.60;6.80;;;;;;;5.40;64.47;101278.88;5075952;28;20171;-63
2021/04/14 11:46:24;;;;;;;10.50;8.15;;;;;;;5.41;64.60;101280.63;5074973;28;20036;-63
2021/04/14 11:48:59;;;;;;;9.95;7.70;;;;;;;5.42;64.35;101273.00;5076071;28;20106;-63
2021/04/14 11:51:37;;;;;;;14.57;7.88;;;;;;;5.42;64.23;101274.69;5074138;28;20058;-63